Terminal Aerodrome Forecast
Issued by NWS

Home | Current Version | Previous Version | Text Only | Print | Product List | Glossary On
Versions: 1 2 3 4 5 6 7 8 9 10 11 12 13 14
934
FTUS43 KDLH 281133
TAFHYR
TAF
KHYR 281133Z 2812/2912 05010KT P6SM VCSH OVC060
     FM281400 06010G17KT P6SM VCSH OVC060
     FM282100 05007KT P6SM OVC060=

USA.gov is the U.S. government's official web portal to all federal, state and local government web resources and services.